Detall de PIREP

Printer-friendly versionPDF version

[2008/12/23 21:06:00]
Flight IATA:CT0001
Pilot Number:041
Company ICAO:CAT
Aircraft Type:BE20/A
PAX:3
Departing Airport: LERS
Destination Airport: LEVC
Alternate Airport:LEAL
Online: VATSIM
Route:EBROX3R B28 LOTOS B28 SOPET1C
Flight Level:FL150
No Slew and time accel
No pause
Crash detect
Detect pilot in Cockpit between each 30 and 45 minutes
21:06 Zero fuel Weight: 9577 Lbs, Fuel Weight: 1805 Lbs
21:06 VATSIM:LERS 232030Z 36005KT 300V020 3700 BR SCT015 06/04 Q1028
21:06 VATSIM:LEVC 232030Z 26003KT 7000 NSC 02/01 Q1029 NOSIG
21:07 VOICE CATALONIAN
21:12 Parking Brakes off
21:20 Take-off
21:20 Take off Weight: 11313 Lbs
21:20 Wind: 001º @ 004 Knots Heading: 249º
21:20 POS N41º 08´ 49´´ E001º 09´ 57´´
21:20 Gear Up: 141 Knots
21:20 Flaps:1 at 141 Knots
21:21 Flaps:0 at 142 Knots
21:35 Wind:053º@004 Knots Heading: 230º Ground Speed: 223 Knots Altitude 8356 ft
21:39
TOC
21:39 Fuel Weight: 1480 Lb
21:40 TOD
21:40 Fuel Weight: 1462 Lb
21:50 Wind:102º@003 Knots Heading: 225º Ground Speed: 208 Knots Altitude 3989 ft
22:05 Wind:102º@003 Knots Heading: 292º Ground Speed: 184 Knots Altitude 3517 ft
22:05 Flaps:1 at 170 Knots
22:07 Gear Down: 150 Knots
22:08 Flaps:2 at 128 Knots
22:09 TouchDown:Rate -38 ft/min Speed: 103 Knots
22:10 Flaps:0 at 73 Knots
22:10 VATSIM:LEVC 232130Z 29004KT 6000 NSC 02/00 Q1029 NOSIG
22:10 Land
22:10 Wind:293º@003 Knots
22:10 Heading: 294º
22:10 Flight Duration: 00:50
22:10 Landing Weight: 10855 Lbs
22:10 POS N39º 29´ 19´´ W000º 28´ 47´´
22:13 Parking brakes on
22:13 Block to Block Duration: 01:01
22:13 Final Fuel: 1263 Lbls
22:13 Spent Fuel: 542 Lbls
22:13 Flight Length: 170 NM
22:13 TOD Land Length: 98 NM

Exportar CSV

Powered by Drupal - Modified by Danger4k